Time;durP1;ratioP1;P1;durP2;ratioP2;P2;SDS_P1;SDS_P2;PMS_P1;PMS_P2;Temp;Humidity;BMP_temperature;BMP_pressure;BME280_temperature;BME280_humidity;BME280_pressure;Samples;Min_cycle;Max_cycle;Signal;HPM_P1;HPM_P2
2022/12/06 00:01:40;;;;;;;;;42.50;38.00;;;;;4.47;68.02;101447.13;5073214;27;45669;-56
2022/12/06 00:04:07;;;;;;;;;40.50;36.50;;;;;4.44;67.79;101442.00;5071267;28;45444;-56
2022/12/06 00:06:42;;;;;;;;;44.80;35.40;;;;;4.75;67.61;101485.97;5071377;28;46263;-56
2022/12/06 00:09:08;;;;;;;;;41.60;34.80;;;;;4.65;68.34;101468.91;5071421;27;45425;-57
2022/12/06 00:11:34;;;;;;;;;40.60;31.20;;;;;4.53;67.33;101449.22;5054967;28;45572;-57
2022/12/06 00:14:04;;;;;;;;;34.00;29.50;;;;;4.79;67.87;101483.81;5072946;27;45511;-58
2022/12/06 00:16:30;;;;;;;;;35.60;34.60;;;;;4.57;67.91;101445.19;5073029;27;46467;-57
2022/12/06 00:18:56;;;;;;;;;43.00;37.00;;;;;4.76;68.04;101475.97;5073035;27;45705;-55
2022/12/06 00:21:32;;;;;;;;;40.50;36.25;;;;;4.76;67.40;101470.53;5071876;27;45324;-57
2022/12/06 00:24:01;;;;;;;;;39.75;32.00;;;;;4.80;68.09;101480.06;5071465;28;45310;-59
2022/12/06 00:26:27;;;;;;;;;38.50;33.00;;;;;4.75;67.37;101469.66;5048546;27;45561;-58
2022/12/06 00:28:54;;;;;;;;;36.75;33.75;;;;;4.77;68.63;101466.78;5064648;27;45480;-57
2022/12/06 00:31:20;;;;;;;;;33.00;27.40;;;;;4.82;68.42;101460.88;5063203;27;46920;-59
2022/12/06 00:33:46;;;;;;;;;43.50;38.25;;;;;4.87;67.55;101455.81;5071457;27;45664;-58
2022/12/06 00:36:17;;;;;;;;;48.50;40.25;;;;;4.86;68.30;101452.25;5072803;28;46748;-60
2022/12/06 00:38:43;;;;;;;;;46.40;35.00;;;;;4.84;68.20;101443.38;5075299;27;45373;-58
2022/12/06 00:41:10;;;;;;;;;41.50;35.25;;;;;4.88;67.64;101450.25;5075831;28;45515;-55
2022/12/06 00:43:36;;;;;;;;;43.25;36.25;;;;;4.78;67.91;101452.19;5076566;27;45678;-60
2022/12/06 00:46:01;;;;;;;;;37.00;31.25;;;;;4.80;67.88;101452.03;5075789;27;46427;-61
2022/12/06 00:48:27;;;;;;;;;43.00;33.25;;;;;4.80;67.97;101455.59;5091857;27;45231;-57
2022/12/06 00:50:53;;;;;;;;;43.00;36.25;;;;;4.74;67.90;101448.03;5076330;27;45214;-57
2022/12/06 00:53:18;;;;;;;;;43.50;37.75;;;;;4.53;68.36;101410.31;5076931;28;45535;-57
2022/12/06 00:55:44;;;;;;;;;46.00;37.00;;;;;4.75;68.99;101447.03;5076141;28;45871;-57
2022/12/06 00:58:10;;;;;;;;;41.25;33.50;;;;;4.69;68.59;101432.19;5076197;27;45340;-57
2022/12/06 01:00:35;;;;;;;;;44.80;36.00;;;;;4.83;68.70;101451.69;5075107;28;45472;-58
2022/12/06 01:03:01;;;;;;;;;38.50;34.50;;;;;4.83;67.69;101440.81;5074597;28;45634;-59
2022/12/06 01:05:26;;;;;;;;;47.25;36.25;;;;;4.80;67.97;101452.03;5075940;27;45530;-57
2022/12/06 01:07:52;;;;;;;;;39.75;32.25;;;;;4.75;67.96;101450.63;5075908;27;45349;-57
2022/12/06 01:10:17;;;;;;;;;46.75;41.00;;;;;4.77;68.99;101450.47;5074462;28;45484;-57
2022/12/06 01:12:43;;;;;;;;;15.50;8.50;;;;;4.82;69.29;101452.72;5076211;27;45443;-58
2022/12/06 01:15:09;;;;;;;;;43.25;37.00;;;;;4.81;68.23;101449.13;5074457;28;45463;-58
2022/12/06 01:17:35;;;;;;;;;47.00;40.20;;;;;4.77;69.11;101457.75;5076142;27;45446;-56
2022/12/06 01:20:00;;;;;;;;;44.50;36.00;;;;;4.79;68.61;101451.16;5075865;27;45377;-57
2022/12/06 01:22:26;;;;;;;;;48.00;39.50;;;;;4.81;68.56;101451.00;5076346;28;45306;-60
2022/12/06 01:24:52;;;;;;;;;36.60;35.00;;;;;4.55;68.74;101416.44;5075626;28;45423;-58
2022/12/06 01:27:17;;;;;;;;;46.00;38.25;;;;;4.78;68.74;101454.03;5075927;28;45264;-58
2022/12/06 01:29:43;;;;;;;;;40.50;35.25;;;;;4.79;69.47;101450.31;5075778;27;45434;-57
2022/12/06 01:32:08;;;;;;;;;40.00;33.50;;;;;4.60;68.86;101403.25;5061734;27;46215;-59
2022/12/06 01:34:34;;;;;;;;;42.00;35.50;;;;;4.87;68.56;101443.06;5075619;28;46062;-57
2022/12/06 01:36:59;;;;;;;;;38.50;33.25;;;;;4.94;68.43;101445.16;5074550;28;45349;-58
2022/12/06 01:39:25;;;;;;;;;46.50;38.00;;;;;4.93;68.64;101446.16;5075803;27;45528;-59
2022/12/06 01:41:50;;;;;;;;;46.00;34.50;;;;;4.90;68.37;101443.78;5074349;28;45388;-58
2022/12/06 01:44:44;;;;;;;;;41.50;35.75;;;;;4.86;68.60;101441.34;5074169;28;46040;-58
2022/12/06 01:47:36;;;;;;;;;46.00;39.60;;;;;4.94;68.96;101445.16;5055116;28;45444;-58
2022/12/06 01:50:18;;;;;;;;;44.60;36.00;;;;;4.68;68.45;101403.31;5055754;28;45771;-58
2022/12/06 01:52:51;;;;;;;;;39.00;34.25;;;;;4.95;69.05;101449.59;5055734;28;45598;-58
2022/12/06 01:55:17;;;;;;;;;42.50;38.25;;;;;4.96;68.96;101454.03;5054000;28;46622;-57
2022/12/06 01:57:43;;;;;;;;;43.00;32.40;;;;;4.90;69.55;101455.50;5055362;28;45415;-57
2022/12/06 02:00:09;;;;;;;;;44.25;36.50;;;;;4.90;69.21;101447.34;5055399;28;45367;-57
2022/12/06 02:02:34;;;;;;;;;49.25;37.00;;;;;4.90;69.85;101450.06;5055573;28;45604;-57
2022/12/06 02:05:00;;;;;;;;;41.75;36.50;;;;;4.95;69.35;101450.44;5055031;28;45739;-57
2022/12/06 02:07:26;;;;;;;;;36.75;35.25;;;;;4.91;69.12;101443.59;5053656;28;45746;-57
2022/12/06 02:09:52;;;;;;;;;46.80;37.20;;;;;4.93;69.34;101451.63;5053805;28;45304;-57
2022/12/06 02:12:17;;;;;;;;;37.00;32.00;;;;;4.84;69.55;101456.13;5053897;28;45267;-57
2022/12/06 02:14:44;;;;;;;;;43.50;36.75;;;;;4.83;70.37;101457.13;5053750;28;45978;-57
2022/12/06 02:17:27;;;;;;;;;40.20;32.60;;;;;4.84;70.33;101447.97;5053391;28;45457;-56
2022/12/06 02:20:11;;;;;;;;;45.60;39.20;;;;;4.92;69.40;101461.66;5070646;28;45337;-56
2022/12/06 02:22:55;;;;;;;;;37.75;35.00;;;;;4.70;69.35;101417.59;5053841;28;45357;-56
2022/12/06 02:25:57;;;;;;;;;36.40;34.40;;;;;4.87;69.00;101443.06;5054784;28;45601;-57
2022/12/06 02:28:44;;;;;;;;;35.20;30.60;;;;;4.99;69.16;101461.88;5055047;28;45344;-60
2022/12/06 02:31:23;;;;;;;;;43.20;32.80;;;;;4.97;70.15;101458.47;5027133;27;45808;-59
2022/12/06 02:34:10;;;;;;;;;38.00;34.75;;;;;4.95;69.28;101460.47;5075743;27;45409;-57
2022/12/06 02:36:41;;;;;;;;;36.20;32.20;;;;;4.93;70.03;101463.38;5073339;28;46033;-58
2022/12/06 02:39:22;;;;;;;;;43.20;31.60;;;;;4.85;70.18;101466.84;5074977;28;45397;-57
2022/12/06 02:42:03;;;;;;;;;48.00;37.40;;;;;4.74;70.33;101451.63;5075009;27;45647;-58
2022/12/06 02:44:32;;;;;;;;;38.00;32.25;;;;;4.75;70.35;101442.47;5058132;28;45384;-58
2022/12/06 02:46:58;;;;;;;;;34.80;31.40;;;;;4.77;70.78;101444.16;5073099;28;46106;-58
2022/12/06 02:49:25;;;;;;;;;27.75;24.00;;;;;4.67;71.21;101436.09;5074438;27;45518;-58
2022/12/06 02:51:51;;;;;;;;;35.80;29.20;;;;;4.81;70.27;101448.28;5056759;28;45328;-57
2022/12/06 02:54:16;;;;;;;;;37.20;30.40;;;;;4.82;71.25;101447.28;5074669;27;45442;-56
2022/12/06 02:56:42;;;;;;;;;37.75;36.75;;;;;4.87;70.35;101455.81;5056247;28;45662;-58
2022/12/06 02:59:09;;;;;;;;;36.25;31.25;;;;;4.86;71.33;101451.41;5056552;28;45313;-58
2022/12/06 03:01:37;;;;;;;;;34.60;27.20;;;;;4.81;70.71;101453.72;5074664;27;45461;-58
2022/12/06 03:04:18;;;;;;;;;35.60;32.40;;;;;4.83;71.40;101447.13;5073689;28;45494;-58
2022/12/06 03:06:56;;;;;;;;;39.00;26.80;;;;;4.80;70.47;101452.03;5074129;28;45245;-58
2022/12/06 03:09:44;;;;;;;;;41.20;35.00;;;;;4.63;71.39;101440.97;5072645;28;45486;-58
2022/12/06 03:12:21;;;;;;;;;34.40;29.80;;;;;4.46;71.12;101415.50;5072858;28;45332;-57
2022/12/06 03:15:15;;;;;;;;;40.00;34.40;;;;;4.71;71.19;101443.78;5074804;28;45432;-58
2022/12/06 03:17:43;;;;;;;;;41.20;32.40;;;;;4.83;71.29;101451.69;5057101;28;46372;-57
2022/12/06 03:20:14;;;;;;;;;28.00;22.60;;;;;4.69;71.01;101413.16;5072928;28;45654;-58
2022/12/06 03:22:43;;;;;;;;;33.80;31.00;;;;;4.93;71.01;101457.06;5073106;28;45385;-58
2022/12/06 03:25:09;;;;;;;;;43.00;36.20;;;;;4.52;71.78;101395.84;5056566;28;45391;-58
2022/12/06 03:27:34;;;;;;;;;39.25;30.50;;;;;4.84;70.93;101454.28;5076071;28;46296;-58
2022/12/06 03:30:00;;;;;;;;;35.75;32.50;;;;;4.55;71.43;101421.88;5076453;28;45358;-58
2022/12/06 03:32:28;;;;;;;;;43.00;33.50;;;;;4.67;72.22;101438.81;5076310;28;45416;-58
2022/12/06 03:34:55;;;;;;;;;42.80;34.20;;;;;4.82;71.12;101450.00;5076963;27;45504;-57
2022/12/06 03:37:22;;;;;;;;;36.60;30.60;;;;;4.82;71.40;101450.00;5077146;27;46500;-55
2022/12/06 03:39:55;;;;;;;;;44.00;34.60;;;;;4.80;71.87;101458.31;5076113;28;45448;-57
2022/12/06 03:42:20;;;;;;;;;37.00;29.60;;;;;4.51;71.67;101398.72;5076035;28;45303;-58
2022/12/06 03:44:46;;;;;;;;;36.00;28.25;;;;;4.95;71.23;101457.75;5059514;28;45550;-58
2022/12/06 03:47:35;;;;;;;;;43.25;31.75;;;;;4.96;71.83;101452.16;5076909;27;45397;-58
2022/12/06 03:50:04;;;;;;;;;45.00;32.80;;;;;4.78;71.45;101415.94;5076004;28;45855;-59
2022/12/06 03:52:30;;;;;;;;;35.20;28.00;;;;;4.92;71.21;101429.00;5059309;28;45402;-59
2022/12/06 03:54:56;;;;;;;;;38.40;31.40;;;;;5.06;71.83;101451.22;5077641;27;45363;-58
2022/12/06 03:57:21;;;;;;;;;34.75;30.75;;;;;5.04;71.11;101451.38;5076946;28;46303;-58
2022/12/06 03:59:47;;;;;;;;;49.00;37.75;;;;;5.01;70.83;101438.94;5077389;28;45295;-58
2022/12/06 04:02:12;;;;;;;;;43.00;30.75;;;;;5.00;72.09;101447.25;5077009;28;45477;-58
2022/12/06 04:04:39;;;;;;;;;39.75;34.25;;;;;5.05;71.76;101449.50;5077620;28;45272;-58
2022/12/06 04:07:04;;;;;;;;;39.60;32.40;;;;;5.05;71.21;101457.66;5076969;28;45690;-58
2022/12/06 04:14:58;;;;;;;;;39.40;28.20;;;;;4.99;72.57;101457.28;5077345;28;45154;-58
2022/12/06 04:20:07;;;;;;;;;54.00;39.80;;;;;4.85;72.59;101441.50;5073382;28;45256;-58
2022/12/06 04:25:17;;;;;;;;;53.80;38.60;;;;;4.78;72.47;101429.53;5073571;28;45375;-58
2022/12/06 04:38:41;;;;;;;;;44.20;33.80;;;;;5.06;72.03;101446.63;5075193;28;45746;-59
2022/12/06 04:41:07;;;;;;;;;45.00;32.50;;;;;5.10;72.64;101447.16;5076422;27;45308;-58
2022/12/06 04:43:42;;;;;;;;;39.00;33.80;;;;;5.09;72.19;101450.91;5075128;28;45387;-57
2022/12/06 04:46:11;;;;;;;;;42.20;36.80;;;;;5.10;72.60;101441.72;5076651;27;45443;-59
2022/12/06 04:48:37;;;;;;;;;44.40;36.00;;;;;4.99;71.84;101430.09;5076346;27;45508;-58
2022/12/06 04:51:03;;;;;;;;;45.50;39.00;;;;;5.10;72.41;101442.59;5075241;28;45498;-58
2022/12/06 04:53:28;;;;;;;;;47.25;39.00;;;;;5.11;71.66;101436.13;5076519;28;45357;-56
2022/12/06 04:55:54;;;;;;;;;46.50;38.50;;;;;5.11;71.98;101435.25;5076364;28;45634;-57
2022/12/06 04:58:19;;;;;;;;;51.50;38.00;;;;;4.87;72.06;101394.09;5058115;28;46938;-58
2022/12/06 05:00:45;;;;;;;;;45.25;41.00;;;;;5.09;72.43;101440.88;5075144;28;45402;-58
2022/12/06 05:03:14;;;;;;;;;41.50;36.00;;;;;5.07;72.58;101423.00;5074916;28;45454;-58
2022/12/06 05:05:39;;;;;;;;;49.80;38.80;;;;;5.13;72.68;101430.53;5075303;28;45486;-57
2022/12/06 05:08:06;;;;;;;;;51.50;36.25;;;;;5.19;72.24;101442.63;5074332;28;45608;-56
2022/12/06 05:10:31;;;;;;;;;49.60;40.20;;;;;5.17;72.57;101429.19;5076239;27;45434;-57
2022/12/06 05:12:57;;;;;;;;;51.50;36.50;;;;;5.20;72.17;101426.16;5075923;27;45327;-56
2022/12/06 05:15:23;;;;;;;;;51.00;39.25;;;;;5.23;71.97;101436.72;5076290;27;45594;-57
2022/12/06 05:17:48;;;;;;;;;48.50;39.25;;;;;5.23;71.85;101433.97;5075903;28;46467;-57
2022/12/06 05:20:13;;;;;;;;;43.50;39.00;;;;;5.23;71.65;101428.53;5075678;28;45426;-57
2022/12/06 05:22:40;;;;;;;;;45.75;36.50;;;;;5.25;71.55;101431.97;5075682;28;45379;-58
2022/12/06 05:25:05;;;;;;;;;55.50;35.75;;;;;5.03;72.58;101395.25;5076033;27;45497;-57
2022/12/06 05:27:31;;;;;;;;;53.50;41.00;;;;;5.23;72.28;101427.72;5075717;28;46463;-58
2022/12/06 05:29:56;;;;;;;;;44.00;37.75;;;;;5.23;71.45;101428.53;5075967;28;45400;-57
2022/12/06 05:32:22;;;;;;;;;61.00;42.50;;;;;5.04;71.44;101394.22;5075738;28;45269;-57
2022/12/06 05:34:47;;;;;;;;;46.00;38.50;;;;;5.26;71.85;101425.50;5076277;28;45378;-57
2022/12/06 05:37:13;;;;;;;;;52.75;40.50;;;;;5.23;72.62;101420.38;5075406;28;46536;-57
2022/12/06 05:39:38;;;;;;;;;52.75;40.25;;;;;5.25;71.52;101422.94;5075747;28;45258;-57
2022/12/06 05:42:04;;;;;;;;;40.00;36.50;;;;;5.24;72.42;101411.19;5075803;28;45366;-58
2022/12/06 05:44:29;;;;;;;;;50.75;39.00;;;;;5.28;71.55;101412.59;5075678;28;45349;-59
2022/12/06 05:46:55;;;;;;;;;44.25;39.50;;;;;5.05;71.40;101367.84;5062534;28;46522;-58
2022/12/06 05:49:20;;;;;;;;;36.25;33.50;;;;;5.26;72.29;101409.19;5053216;28;46372;-59
2022/12/06 05:51:45;;;;;;;;;44.00;31.75;;;;;5.13;72.20;101397.88;5055594;28;45412;-58
2022/12/06 05:54:11;;;;;;;;;48.25;39.25;;;;;5.24;72.39;101408.47;5055260;28;45997;-59
2022/12/06 05:56:36;;;;;;;;;44.25;36.75;;;;;5.18;72.49;101403.66;5054962;28;45372;-59
2022/12/06 05:59:02;;;;;;;;;48.00;40.00;;;;;5.24;72.09;101411.19;5054954;28;45338;-59
2022/12/06 06:01:27;;;;;;;;;44.25;36.75;;;;;5.27;72.72;101410.88;5055287;28;45351;-58
2022/12/06 06:03:53;;;;;;;;;51.00;39.00;;;;;5.28;72.67;101414.44;5055418;28;45340;-59
2022/12/06 06:06:18;;;;;;;;;48.50;41.25;;;;;5.22;72.72;101413.22;5053497;28;47034;-59
2022/12/06 06:08:44;;;;;;;;;43.25;35.75;;;;;5.20;72.10;101407.09;5054851;28;45444;-58
2022/12/06 06:11:09;;;;;;;;;43.50;32.00;;;;;5.05;72.13;101373.31;5055266;28;45447;-55
2022/12/06 06:13:35;;;;;;;;;47.00;38.25;;;;;5.34;71.94;101416.53;5042686;27;45247;-57
2022/12/06 06:16:01;;;;;;;;;44.25;35.25;;;;;5.35;71.98;101420.13;5060159;27;46441;-56
2022/12/06 06:18:26;;;;;;;;;55.25;41.75;;;;;5.38;72.28;101425.22;5073411;28;45354;-58
2022/12/06 06:20:54;;;;;;;;;37.00;34.50;;;;;5.39;71.40;101413.34;5075180;27;45182;-58
2022/12/06 06:23:20;;;;;;;;;41.50;34.75;;;;;5.42;71.54;101418.44;5073671;28;45424;-57
2022/12/06 06:25:45;;;;;;;;;44.25;35.50;;;;;5.42;71.87;101426.63;5090603;27;45599;-59
2022/12/06 06:28:11;;;;;;;;;33.75;30.75;;;;;5.45;71.32;101429.03;5074864;27;45471;-60
2022/12/06 06:30:36;;;;;;;;;37.25;27.50;;;;;5.26;71.17;101395.56;5075179;27;45359;-59
2022/12/06 06:33:02;;;;;;;;;39.50;33.75;;;;;5.44;71.90;101432.75;5075123;27;45538;-59
2022/12/06 06:35:28;;;;;;;;;44.00;35.75;;;;;5.17;71.96;101382.06;5073568;28;47439;-59
2022/12/06 06:37:53;;;;;;;;;39.80;31.60;;;;;5.42;71.82;101430.22;5072841;28;45510;-57
2022/12/06 06:40:19;;;;;;;;;39.75;35.00;;;;;5.47;72.18;101432.44;5074513;27;45289;-58
2022/12/06 06:42:45;;;;;;;;;35.75;32.75;;;;;5.48;71.87;101430.56;5075083;27;45463;-57
2022/12/06 06:45:11;;;;;;;;;41.80;34.20;;;;;5.53;71.29;101434.53;5074506;28;46603;-56
2022/12/06 06:47:36;;;;;;;;;39.75;32.25;;;;;5.52;71.19;101432.81;5074393;28;45260;-57
2022/12/06 06:50:02;;;;;;;;;41.00;33.75;;;;;5.55;71.23;101439.81;5073558;28;45398;-57
2022/12/06 06:52:28;;;;;;;;;35.50;30.25;;;;;5.49;71.42;101433.13;5075098;27;45352;-57
2022/12/06 06:54:54;;;;;;;;;40.00;36.25;;;;;5.54;71.24;101438.94;5074537;28;45714;-60
2022/12/06 06:57:19;;;;;;;;;41.75;36.50;;;;;5.35;71.29;101406.50;5074318;27;45417;-59
2022/12/06 06:59:45;;;;;;;;;40.25;36.00;;;;;5.36;71.41;101410.94;5074247;28;45417;-59
2022/12/06 07:02:12;;;;;;;;;37.25;32.50;;;;;5.52;71.20;101440.13;5077948;28;45372;-59
2022/12/06 07:04:37;;;;;;;;;46.00;31.20;;;;;5.31;71.99;101408.69;5077783;27;46575;-57
2022/12/06 07:07:03;;;;;;;;;38.75;35.75;;;;;5.54;71.71;101432.63;5078162;27;45417;-57
2022/12/06 07:09:28;;;;;;;;;42.00;33.75;;;;;5.47;71.32;101429.72;5076652;28;45389;-59
2022/12/06 07:11:53;;;;;;;;;37.50;32.25;;;;;5.53;72.19;101428.22;5076738;28;45503;-58
2022/12/06 07:14:19;;;;;;;;;39.75;35.75;;;;;5.55;71.59;101437.09;5077374;28;46141;-57
2022/12/06 07:16:44;;;;;;;;;38.75;34.75;;;;;5.57;71.79;101430.44;5077862;28;45393;-57
2022/12/06 07:19:10;;;;;;;;;41.25;33.00;;;;;5.57;71.58;101432.31;5077931;28;45347;-60
2022/12/06 07:21:35;;;;;;;;;49.50;38.75;;;;;5.58;71.83;101428.59;5077879;28;45373;-59
2022/12/06 07:24:01;;;;;;;;;43.00;36.25;;;;;5.17;71.40;101361.13;5077277;28;46476;-58
2022/12/06 07:26:27;;;;;;;;;45.75;31.25;;;;;5.36;71.78;101392.75;5076281;28;45345;-59
2022/12/06 07:28:53;;;;;;;;;38.40;31.20;;;;;5.55;72.02;101418.03;5077448;27;45517;-58
2022/12/06 07:31:21;;;;;;;;;46.75;36.50;;;;;5.54;71.51;101425.34;5078006;27;45311;-57
2022/12/06 07:33:46;;;;;;;;;38.40;34.80;;;;;5.29;72.84;101408.00;5077303;27;46137;-57
2022/12/06 07:36:12;;;;;;;;;47.25;38.00;;;;;5.36;72.58;101433.56;5076233;28;45388;-58
2022/12/06 07:38:38;;;;;;;;;39.00;32.75;;;;;5.40;72.83;101436.81;5077640;27;45296;-59
2022/12/06 07:46:34;;;;;;;;;50.20;40.60;;;;;5.37;73.19;101437.13;5068299;28;45221;-59
2022/12/06 07:49:00;;;;;;;;;42.50;36.00;;;;;5.27;73.61;101420.91;5056893;28;45517;-57
2022/12/06 07:51:25;;;;;;;;;46.25;36.25;;;;;5.05;74.54;101400.50;5057393;28;45788;-57
2022/12/06 07:53:51;;;;;;;;;39.25;33.00;;;;;5.30;73.38;101423.31;5054967;28;45448;-57
2022/12/06 07:56:16;;;;;;;;;50.50;33.00;;;;;5.20;74.26;101419.84;5055494;28;45390;-58
2022/12/06 07:58:42;;;;;;;;;45.75;35.25;;;;;5.22;73.88;101432.28;5057427;28;45254;-58
2022/12/06 08:01:07;;;;;;;;;43.25;35.25;;;;;5.21;73.80;101427.84;5042092;27;45558;-58
2022/12/06 08:03:33;;;;;;;;;45.25;37.25;;;;;5.10;73.79;101404.47;5073290;28;46312;-59
2022/12/06 08:05:58;;;;;;;;;68.75;52.50;;;;;5.36;73.63;101430.84;5073597;27;45362;-58
2022/12/06 08:08:24;;;;;;;;;46.25;32.75;;;;;5.23;74.89;101442.16;5077088;27;45382;-57
2022/12/06 08:10:49;;;;;;;;;44.25;36.75;;;;;4.96;74.33;101403.19;5076044;28;45771;-55
2022/12/06 08:13:15;;;;;;;;;45.50;41.00;;;;;5.21;73.92;101446.91;5076644;28;46374;-57
2022/12/06 08:15:40;;;;;;;;;46.25;36.00;;;;;5.24;73.97;101451.19;5075635;28;45428;-58
2022/12/06 08:18:06;;;;;;;;;58.50;43.00;;;;;5.12;74.13;101440.53;5076520;28;45830;-57
2022/12/06 08:20:31;;;;;;;;;43.00;38.25;;;;;4.87;74.48;101399.53;5077282;28;45418;-58
2022/12/06 08:22:57;;;;;;;;;49.50;40.75;;;;;5.23;74.08;101458.47;5075267;28;46452;-53
2022/12/06 08:25:22;;;;;;;;;41.00;36.75;;;;;5.25;74.73;101461.91;5076734;28;45551;-58
2022/12/06 08:27:48;;;;;;;;;54.50;38.50;;;;;5.27;73.79;101465.31;5076922;28;45460;-58
2022/12/06 08:30:13;;;;;;;;;59.25;42.75;;;;;5.01;74.15;101427.19;5076710;28;45333;-58
2022/12/06 08:32:39;;;;;;;;;53.50;43.50;;;;;5.26;74.35;101479.97;5075131;28;47689;-58
2022/12/06 08:35:05;;;;;;;;;53.25;42.75;;;;;5.26;74.21;101474.50;5075205;28;45427;-59
2022/12/06 08:37:32;;;;;;;;;54.75;42.00;;;;;5.14;74.10;101443.94;5076969;27;45238;-58
2022/12/06 08:39:57;;;;;;;;;44.00;39.25;;;;;5.33;74.83;101472.00;5027715;27;45682;-63
2022/12/06 08:42:23;;;;;;;;;54.25;40.00;;;;;5.31;74.17;101468.59;5078355;27;45671;-57
2022/12/06 08:44:50;;;;;;;;;59.25;41.00;;;;;5.29;74.19;101474.19;5076561;27;45367;-57
2022/12/06 08:47:16;;;;;;;;;57.50;42.25;;;;;5.28;74.10;101477.06;5063809;28;45477;-59
2022/12/06 08:49:41;;;;;;;;;56.50;40.50;;;;;5.37;73.99;101494.31;5068671;28;45393;-56
2022/12/06 08:52:07;;;;;;;;;50.25;42.50;;;;;5.38;75.18;101493.28;5076764;28;46406;-56
2022/12/06 08:54:34;;;;;;;;;59.00;48.00;;;;;5.31;74.82;101487.63;5076051;27;45246;-58
2022/12/06 08:56:59;;;;;;;;;51.80;40.80;;;;;5.37;75.42;101503.34;5076619;28;45475;-56
2022/12/06 08:59:24;;;;;;;;;61.50;45.25;;;;;5.30;75.61;101491.38;5076444;28;45541;-54
2022/12/06 09:01:50;;;;;;;;;46.00;42.50;;;;;5.35;75.63;101504.50;5076190;27;45870;-55
2022/12/06 09:04:16;;;;;;;;;57.25;44.50;;;;;5.05;75.68;101453.06;5075979;27;45422;-54
2022/12/06 09:06:42;;;;;;;;;63.75;43.75;;;;;5.28;75.83;101490.66;5075371;28;45378;-51
2022/12/06 09:09:08;;;;;;;;;57.00;45.50;;;;;5.32;75.95;101491.22;5075153;28;45440;-53
2022/12/06 09:11:33;;;;;;;;;58.75;43.75;;;;;5.29;76.08;101493.22;5074822;28;45660;-54
2022/12/06 09:13:59;;;;;;;;;59.00;45.00;;;;;5.28;76.67;101494.25;5075917;27;45369;-57
2022/12/06 09:16:24;;;;;;;;;46.75;39.00;;;;;5.33;76.19;101518.28;5076327;27;45423;-56
2022/12/06 09:18:52;;;;;;;;;55.50;42.00;;;;;5.28;77.04;101505.13;5074801;28;45347;-56
2022/12/06 09:21:20;;;;;;;;;59.50;46.50;;;;;5.25;77.00;101507.31;5076011;27;46070;-56
2022/12/06 09:23:46;;;;;;;;;55.40;40.80;;;;;5.12;77.08;101486.81;5073990;28;45229;-57
2022/12/06 09:26:11;;;;;;;;;50.75;41.50;;;;;5.30;77.10;101513.16;5076527;27;45698;-57
2022/12/06 09:28:38;;;;;;;;;47.75;35.50;;;;;4.99;77.65;101464.59;5076239;28;45369;-57
2022/12/06 09:31:04;;;;;;;;;53.75;43.75;;;;;5.24;78.52;101503.72;5074915;28;47006;-59
2022/12/06 09:33:30;;;;;;;;;58.00;42.20;;;;;5.24;78.31;101511.06;5076757;27;45647;-56
2022/12/06 09:35:56;;;;;;;;;49.25;41.25;;;;;5.28;78.82;101509.72;5076099;27;45387;-59
2022/12/06 09:38:23;;;;;;;;;46.25;37.00;;;;;5.28;79.00;101510.59;5059908;28;45539;-59
2022/12/06 09:41:01;;;;;;;;;47.50;37.50;;;;;5.28;78.25;101515.16;5076190;27;45809;-55
2022/12/06 09:43:44;;;;;;;;;54.40;41.20;;;;;5.26;78.77;101517.19;5074522;28;45334;-59
2022/12/06 09:46:38;;;;;;;;;59.00;43.75;;;;;4.87;78.87;101453.94;5074034;27;45429;-55
2022/12/06 09:49:20;;;;;;;;;57.50;39.00;;;;;5.23;79.45;101529.25;5071067;28;45769;-60
2022/12/06 09:52:11;;;;;;;;;47.25;36.75;;;;;5.24;79.16;101527.41;5038450;28;46639;-60
2022/12/06 09:54:40;;;;;;;;;53.20;42.60;;;;;5.26;78.33;101523.50;5073333;27;45383;-58
2022/12/06 09:57:17;;;;;;;;;52.50;43.25;;;;;5.25;78.34;101520.94;5072612;28;45506;-57
2022/12/06 09:59:51;;;;;;;;;42.50;37.00;;;;;5.27;77.92;101525.22;5046185;28;45796;-59
2022/12/06 10:02:36;;;;;;;;;35.00;27.60;;;;;5.29;78.55;101517.72;5071213;28;46433;-59
2022/12/06 10:05:22;;;;;;;;;44.40;37.80;;;;;5.13;77.47;101491.22;5073956;28;45428;-60
2022/12/06 10:08:20;;;;;;;;;52.25;40.00;;;;;5.15;78.15;101504.69;5075465;28;45430;-59
2022/12/06 10:11:09;;;;;;;;;56.25;40.50;;;;;5.25;77.93;101527.25;5074235;28;45463;-59
2022/12/06 10:13:53;;;;;;;;;46.75;41.50;;;;;5.28;78.55;101523.31;5074260;28;46663;-59
2022/12/06 10:16:50;;;;;;;;;54.80;42.20;;;;;5.28;78.21;101518.75;5075212;28;45292;-58
2022/12/06 10:19:25;;;;;;;;;49.50;41.50;;;;;5.07;78.79;101477.41;5040749;27;45615;-59
2022/12/06 10:22:06;;;;;;;;;52.50;36.25;;;;;5.27;78.19;101514.31;5074197;28;45519;-60
2022/12/06 10:24:37;;;;;;;;;51.75;39.50;;;;;5.25;78.62;101521.81;5074893;27;46725;-57
2022/12/06 10:27:09;;;;;;;;;61.60;45.00;;;;;5.15;77.94;101507.41;5075052;27;45458;-58
2022/12/06 10:29:38;;;;;;;;;57.75;42.75;;;;;5.18;78.34;101512.53;5074168;28;45357;-58
2022/12/06 10:32:31;;;;;;;;;47.75;39.25;;;;;5.22;78.31;101516.66;5075505;28;45554;-59
2022/12/06 10:35:17;;;;;;;;;47.25;41.75;;;;;5.26;78.62;101517.19;5063204;28;46946;-59
2022/12/06 10:38:10;;;;;;;;;47.00;39.00;;;;;5.25;78.80;101516.34;5061565;27;45567;-60
2022/12/06 10:40:44;;;;;;;;;53.60;41.60;;;;;5.29;78.76;101525.06;5057430;28;45946;-60
2022/12/06 10:43:42;;;;;;;;;53.75;41.00;;;;;5.04;78.29;101488.59;5070670;28;45480;-59
2022/12/06 10:49:47;;;;;;;;;45.80;40.60;;;;;5.37;77.83;101514.22;5059633;28;45454;-62
2022/12/06 10:52:45;;;;;;;;;43.00;38.20;;;;;5.28;77.43;101512.44;5073928;28;45635;-59
2022/12/06 10:55:10;;;;;;;;;47.75;39.00;;;;;5.32;78.32;101522.00;5070790;28;45543;-60
2022/12/06 10:58:00;;;;;;;;;51.25;39.25;;;;;5.32;78.64;101522.00;5073353;27;46082;-53
2022/12/06 11:00:27;;;;;;;;;45.00;41.00;;;;;5.35;78.42;101521.72;5057217;27;45389;-60
2022/12/06 11:03:05;;;;;;;;;49.60;38.40;;;;;5.35;78.26;101523.56;5067974;27;45883;-59
2022/12/06 11:05:48;;;;;;;;;39.25;34.50;;;;;5.34;78.29;101519.13;5074141;27;45369;-59
2022/12/06 11:08:34;;;;;;;;;52.25;42.25;;;;;5.35;78.58;101515.41;5073263;28;47049;-60
2022/12/06 11:11:00;;;;;;;;;49.60;36.60;;;;;5.30;79.05;101505.00;5056948;28;45426;-59
2022/12/06 11:13:34;;;;;;;;;55.25;39.25;;;;;5.14;78.95;101473.06;5054474;28;45496;-59
2022/12/06 11:16:11;;;;;;;;;50.25;39.25;;;;;5.41;78.99;101507.44;5052040;28;45760;-60
2022/12/06 11:18:37;;;;;;;;;45.00;38.20;;;;;5.25;78.41;101477.38;5036002;28;47052;-61
2022/12/06 11:21:25;;;;;;;;;44.50;39.00;;;;;5.37;78.83;101495.16;5053038;28;45436;-60
2022/12/06 11:24:06;;;;;;;;;53.20;39.60;;;;;5.48;78.78;101495.91;5058177;28;45437;-55
2022/12/06 11:26:47;;;;;;;;;47.50;39.00;;;;;5.50;78.82;101497.47;5073400;28;45533;-55
2022/12/06 11:29:13;;;;;;;;;42.00;34.00;;;;;5.52;79.24;101500.03;5055095;28;46654;-53
2022/12/06 11:31:40;;;;;;;;;46.80;38.60;;;;;5.50;78.48;101497.47;5073114;27;45437;-58
2022/12/06 11:34:29;;;;;;;;;59.80;43.00;;;;;5.51;78.66;101496.44;5071987;28;45523;-57
2022/12/06 11:36:54;;;;;;;;;47.50;39.50;;;;;5.48;78.88;101487.75;5060297;28;45612;-62
2022/12/06 11:39:20;;;;;;;;;57.75;41.25;;;;;5.44;79.38;101476.31;5039089;28;45893;-54
2022/12/06 11:41:50;;;;;;;;;57.25;41.50;;;;;5.50;79.42;101491.19;5052981;28;45424;-57
2022/12/06 11:44:19;;;;;;;;;49.80;37.80;;;;;5.27;79.24;101450.84;5035625;28;45744;-57
2022/12/06 11:46:52;;;;;;;;;61.00;46.00;;;;;5.50;79.35;101480.28;5034871;28;45505;-60
2022/12/06 11:49:24;;;;;;;;;56.00;43.25;;;;;5.45;78.99;101469.00;5068866;28;45772;-62
2022/12/06 11:51:50;;;;;;;;;57.60;42.40;;;;;5.51;79.83;101474.66;5073467;27;45380;-56
2022/12/06 11:54:21;;;;;;;;;60.75;43.25;;;;;5.52;79.27;101462.78;5068519;28;45647;-54
2022/12/06 11:56:47;;;;;;;;;47.75;41.25;;;;;5.53;80.18;101464.47;5077127;27;45665;-58
2022/12/06 11:59:27;;;;;;;;;55.25;41.00;;;;;5.48;79.43;101461.38;5068744;27;45746;-59